createdAt,value
2023-01-11T00:00:04.727Z,0.00
2023-01-11T00:01:04.898Z,0.00
2023-01-11T00:02:04.725Z,0.00
2023-01-11T00:03:04.678Z,0.00
2023-01-11T00:04:04.691Z,0.00
2023-01-11T00:05:04.685Z,0.00
2023-01-11T00:06:04.620Z,0.00
2023-01-11T00:07:04.975Z,0.00
2023-01-11T00:08:04.597Z,0.00
2023-01-11T00:09:04.596Z,0.00
2023-01-11T00:10:04.588Z,0.00
2023-01-11T00:11:04.582Z,0.00
2023-01-11T00:12:04.569Z,0.00
2023-01-11T00:13:04.637Z,0.00
2023-01-11T00:14:04.515Z,0.00
2023-01-11T00:15:04.562Z,0.00
2023-01-11T00:16:04.507Z,0.00
2023-01-11T00:17:04.504Z,0.00
2023-01-11T00:18:04.480Z,0.00
2023-01-11T00:19:04.547Z,0.00
2023-01-11T00:20:04.437Z,0.00
2023-01-11T00:21:04.445Z,0.00
2023-01-11T00:22:04.430Z,0.00
2023-01-11T00:23:04.431Z,0.00
2023-01-11T00:24:04.404Z,0.00
2023-01-11T00:25:04.568Z,0.00
2023-01-11T00:26:04.361Z,0.00
2023-01-11T00:27:04.389Z,0.00
2023-01-11T00:28:04.331Z,0.00
2023-01-11T00:29:04.343Z,0.00
2023-01-11T00:30:04.332Z,0.00
2023-01-11T00:31:04.418Z,0.00
2023-01-11T00:32:04.320Z,0.00
2023-01-11T00:33:04.326Z,0.00
2023-01-11T00:34:04.253Z,0.00
2023-01-11T00:35:04.269Z,0.00
2023-01-11T00:36:04.242Z,0.00
2023-01-11T00:37:04.413Z,0.00
2023-01-11T00:38:04.201Z,0.00
2023-01-11T00:39:04.256Z,0.00
2023-01-11T00:40:04.175Z,0.00
2023-01-11T00:41:04.184Z,0.00
2023-01-11T00:42:04.176Z,0.00
2023-01-11T00:43:04.278Z,0.00
2023-01-11T00:44:04.152Z,0.00
2023-01-11T00:45:04.157Z,0.00
2023-01-11T00:46:04.137Z,0.00
2023-01-11T00:47:04.152Z,0.00
2023-01-11T00:48:04.072Z,0.00
2023-01-11T00:49:04.124Z,0.00
2023-01-11T00:50:04.058Z,0.00
2023-01-11T00:51:04.041Z,0.00
2023-01-11T00:52:04.067Z,0.00
2023-01-11T00:53:04.024Z,0.00
2023-01-11T00:54:04.008Z,0.00
2023-01-11T00:55:04.030Z,0.00
2023-01-11T00:56:04.013Z,0.00
2023-01-11T00:57:04.012Z,0.00
2023-01-11T00:58:03.975Z,0.00
2023-01-11T00:59:03.953Z,0.00
2023-01-11T01:00:03.947Z,0.00
2023-01-11T01:01:04.071Z,0.00
2023-01-11T01:02:03.973Z,0.00
2023-01-11T01:03:03.878Z,0.00
2023-01-11T01:04:03.926Z,0.00
2023-01-11T01:05:03.878Z,0.00
2023-01-11T01:06:03.871Z,0.00
2023-01-11T01:07:03.946Z,0.00
2023-01-11T01:08:03.875Z,0.00
2023-01-11T01:09:03.827Z,0.00
2023-01-11T01:10:03.825Z,0.00
2023-01-11T01:11:03.803Z,0.00
2023-01-11T01:12:03.781Z,0.00
2023-01-11T01:13:03.783Z,0.00
2023-01-11T01:14:03.786Z,0.00
2023-01-11T01:15:03.726Z,0.00
2023-01-11T01:16:03.830Z,0.00
2023-01-11T01:17:03.766Z,0.00
2023-01-11T01:18:03.745Z,0.00
2023-01-11T01:19:03.823Z,0.00
2023-01-11T01:20:03.699Z,0.00
2023-01-11T01:21:03.654Z,0.00
2023-01-11T01:22:03.688Z,0.00
2023-01-11T01:23:03.656Z,0.00
2023-01-11T01:24:03.639Z,0.00
2023-01-11T01:25:03.613Z,0.00
2023-01-11T01:26:03.646Z,0.00
2023-01-11T01:27:03.582Z,0.00
2023-01-11T01:28:03.601Z,0.00
2023-01-11T01:29:03.572Z,0.00
2023-01-11T01:30:03.541Z,0.00
2023-01-11T01:31:03.607Z,0.00
2023-01-11T01:32:03.527Z,0.00
2023-01-11T01:33:03.485Z,0.00
2023-01-11T01:34:03.528Z,0.00
2023-01-11T01:35:03.490Z,0.00
2023-01-11T01:36:03.497Z,0.00
2023-01-11T01:37:03.501Z,0.00
2023-01-11T01:38:03.448Z,0.00
2023-01-11T01:39:03.409Z,0.00
2023-01-11T01:40:03.447Z,0.00
2023-01-11T01:41:03.415Z,0.00
2023-01-11T01:42:03.388Z,0.00
2023-01-11T01:43:03.504Z,0.00
2023-01-11T01:44:03.371Z,0.00
2023-01-11T01:45:03.476Z,0.00
2023-01-11T01:46:03.421Z,0.00
2023-01-11T01:47:03.301Z,0.00
2023-01-11T01:48:03.336Z,0.00
2023-01-11T01:49:03.349Z,0.00
2023-01-11T01:50:03.310Z,0.00
2023-01-11T01:51:03.273Z,0.00
2023-01-11T01:52:03.264Z,0.00
2023-01-11T01:53:03.219Z,0.00
2023-01-11T01:54:03.276Z,0.00
2023-01-11T01:55:03.309Z,0.00
2023-01-11T01:56:03.241Z,0.00
2023-01-11T01:57:03.220Z,0.00
2023-01-11T01:58:03.195Z,0.00
2023-01-11T01:59:03.174Z,0.00
2023-01-11T02:00:03.166Z,0.00
2023-01-11T02:01:03.238Z,0.00
2023-01-11T02:02:03.219Z,0.00
2023-01-11T02:03:03.147Z,0.00
2023-01-11T02:04:03.134Z,0.00
2023-01-11T02:05:03.101Z,0.00
2023-01-11T02:06:03.084Z,0.00
2023-01-11T02:07:03.176Z,0.00
2023-01-11T02:08:03.055Z,0.00
2023-01-11T02:09:03.009Z,0.00
2023-01-11T02:10:03.055Z,0.00
2023-01-11T02:11:03.021Z,0.00
2023-01-11T02:12:03.018Z,0.00
2023-01-11T02:13:02.988Z,0.00
2023-01-11T02:14:03.014Z,0.00
2023-01-11T02:15:02.930Z,0.00
2023-01-11T02:16:02.998Z,0.00
2023-01-11T02:17:02.947Z,0.00
2023-01-11T02:18:02.917Z,0.00
2023-01-11T02:19:03.025Z,0.00
2023-01-11T02:20:02.904Z,0.00
2023-01-11T02:21:02.856Z,0.00
2023-01-11T02:22:02.905Z,0.00
2023-01-11T02:23:02.835Z,0.00
2023-01-11T02:24:02.867Z,0.00
2023-01-11T02:25:02.958Z,0.00
2023-01-11T02:26:02.810Z,0.00
2023-01-11T02:27:02.789Z,0.00
2023-01-11T02:28:02.816Z,0.00
2023-01-11T02:29:02.787Z,0.00
2023-01-11T02:30:02.783Z,0.00
2023-01-11T02:31:02.821Z,0.00
2023-01-11T02:32:02.733Z,0.00
2023-01-11T02:33:02.755Z,0.00
2023-01-11T02:34:02.742Z,0.00
2023-01-11T02:35:02.680Z,0.00
2023-01-11T02:36:02.727Z,0.00
2023-01-11T02:37:02.710Z,0.00
2023-01-11T02:38:02.656Z,0.00
2023-01-11T02:39:02.652Z,0.00
2023-01-11T02:40:02.642Z,0.00
2023-01-11T02:41:02.595Z,0.00
2023-01-11T02:42:02.642Z,0.00
2023-01-11T02:43:02.620Z,0.00
2023-01-11T02:44:02.589Z,0.00
2023-01-11T02:45:02.545Z,0.00
2023-01-11T02:46:02.587Z,0.00
2023-01-11T02:47:02.516Z,0.00
2023-01-11T02:48:02.562Z,0.00
2023-01-11T02:49:02.558Z,0.00
2023-01-11T02:50:02.515Z,0.00
2023-01-11T02:51:02.491Z,0.00
2023-01-11T02:52:02.484Z,0.00
2023-01-11T02:53:02.444Z,0.00
2023-01-11T02:54:02.488Z,0.00
2023-01-11T02:55:02.459Z,0.00
2023-01-11T02:56:02.458Z,0.00
2023-01-11T02:57:02.409Z,0.00
2023-01-11T02:58:02.427Z,0.00
2023-01-11T02:59:02.387Z,0.00
2023-01-11T03:00:02.377Z,0.00
2023-01-11T03:01:02.390Z,0.00
2023-01-11T03:02:02.551Z,0.00
2023-01-11T03:03:02.349Z,0.00
2023-01-11T03:04:02.349Z,0.00
2023-01-11T03:05:02.316Z,0.00
2023-01-11T03:06:02.312Z,0.00
2023-01-11T03:07:02.367Z,0.00
2023-01-11T03:08:02.262Z,0.00
2023-01-11T03:09:02.244Z,0.00
2023-01-11T03:10:02.571Z,0.00
2023-01-11T03:11:02.204Z,0.00
2023-01-11T03:12:02.242Z,0.00
2023-01-11T03:13:03.194Z,0.00
2023-01-11T03:14:02.193Z,0.00
2023-01-11T03:15:02.183Z,0.00
2023-01-11T03:17:12.290Z,0.00
2023-01-11T03:18:12.412Z,0.00
2023-01-11T03:19:12.224Z,0.00
2023-01-11T03:20:12.279Z,0.00
2023-01-11T03:21:12.212Z,0.00
2023-01-11T03:22:12.319Z,0.00
2023-01-11T03:23:12.260Z,0.00
2023-01-11T03:24:12.337Z,0.00
2023-01-11T03:25:12.192Z,0.00
2023-01-11T03:26:12.213Z,0.00
2023-01-11T03:27:12.172Z,0.00
2023-01-11T03:28:12.203Z,0.00
2023-01-11T03:29:12.114Z,0.00
2023-01-11T03:30:12.151Z,0.00
2023-01-11T03:31:12.134Z,0.00
2023-01-11T03:32:12.133Z,0.00
2023-01-11T03:33:12.060Z,0.00
2023-01-11T03:34:12.074Z,0.00
2023-01-11T03:35:12.078Z,0.00
2023-01-11T03:36:12.101Z,0.00
2023-01-11T03:37:12.049Z,0.00
2023-01-11T03:38:12.055Z,0.00
2023-01-11T03:39:11.983Z,0.00
2023-01-11T03:40:12.016Z,0.00
2023-01-11T03:41:11.959Z,0.00
2023-01-11T03:42:12.000Z,0.00
2023-01-11T03:43:11.959Z,0.00
2023-01-11T03:44:11.940Z,0.00
2023-01-11T03:45:11.935Z,0.00
2023-01-11T03:46:11.952Z,0.00
2023-01-11T03:47:11.884Z,0.00
2023-01-11T03:48:12.006Z,0.00
2023-01-11T03:49:11.869Z,0.00
2023-01-11T03:50:11.900Z,0.00
2023-01-11T03:51:11.822Z,0.00
2023-01-11T03:52:11.857Z,0.00
2023-01-11T03:53:11.805Z,0.00
2023-01-11T03:54:11.933Z,0.00
2023-01-11T03:55:11.803Z,0.00
2023-01-11T03:56:11.808Z,0.00
2023-01-11T03:57:11.776Z,0.00
2023-01-11T03:58:11.793Z,0.00
2023-01-11T03:59:11.713Z,0.00
2023-01-11T04:00:11.798Z,0.00
2023-01-11T04:01:11.725Z,0.00
2023-01-11T04:02:11.697Z,0.00
2023-01-11T04:03:11.685Z,0.00
2023-01-11T04:04:11.768Z,0.00
2023-01-11T04:05:11.662Z,0.00
2023-01-11T04:06:11.801Z,0.00
2023-01-11T04:07:11.607Z,0.00
2023-01-11T04:08:11.693Z,0.00
2023-01-11T04:09:11.576Z,0.00
2023-01-11T04:10:11.593Z,0.00
2023-01-11T04:11:11.574Z,0.00
2023-01-11T04:12:11.676Z,0.00
2023-01-11T04:13:11.547Z,0.00
2023-01-11T04:14:11.547Z,0.00
2023-01-11T04:15:11.492Z,0.00
2023-01-11T04:16:11.562Z,0.00
2023-01-11T04:17:11.484Z,0.00
2023-01-11T04:18:11.523Z,0.00
2023-01-11T04:19:11.490Z,0.00
2023-01-11T04:20:11.497Z,0.00
2023-01-11T04:21:11.418Z,0.00
2023-01-11T04:22:11.461Z,0.00
2023-01-11T04:23:11.418Z,0.00
2023-01-11T04:24:11.421Z,0.00
2023-01-11T04:25:11.391Z,0.00
2023-01-11T04:26:11.414Z,0.00
2023-01-11T04:27:11.344Z,0.00
2023-01-11T04:28:11.377Z,0.00
2023-01-11T04:29:11.313Z,0.00
2023-01-11T04:30:11.351Z,0.00
2023-01-11T04:31:11.351Z,0.00
2023-01-11T04:32:11.300Z,0.00
2023-01-11T04:33:11.273Z,0.00
2023-01-11T04:34:11.292Z,0.00
2023-01-11T04:35:11.227Z,0.00
2023-01-11T04:36:11.276Z,0.00
2023-01-11T04:37:11.225Z,0.00
2023-01-11T04:38:11.256Z,0.00
2023-01-11T04:39:11.179Z,0.00
2023-01-11T04:40:11.217Z,0.00
2023-01-11T04:41:11.162Z,0.00
2023-01-11T04:42:11.281Z,0.00
2023-01-11T04:43:11.143Z,0.00
2023-01-11T04:44:11.122Z,0.00
2023-01-11T04:45:11.102Z,0.00
2023-01-11T04:46:11.123Z,0.00
2023-01-11T04:47:11.051Z,0.00
2023-01-11T04:48:11.200Z,0.00
2023-01-11T04:49:11.028Z,0.00
2023-01-11T04:50:11.123Z,0.00
2023-01-11T04:51:11.030Z,0.00
2023-01-11T04:52:11.036Z,0.00
2023-01-11T04:53:10.978Z,0.00
2023-01-11T04:54:11.114Z,0.00
2023-01-11T04:55:10.973Z,0.00
2023-01-11T04:56:10.961Z,0.00
2023-01-11T04:57:10.958Z,0.00
2023-01-11T04:58:10.984Z,0.00
2023-01-11T04:59:10.901Z,0.00
2023-01-11T05:00:11.029Z,0.00
2023-01-11T05:01:10.975Z,0.00
2023-01-11T05:02:10.885Z,0.00
2023-01-11T05:03:10.866Z,0.00
2023-01-11T05:04:13.326Z,0.00
2023-01-11T05:05:10.840Z,0.00
2023-01-11T05:06:10.881Z,0.00
2023-01-11T05:07:10.806Z,0.00
2023-01-11T05:08:10.782Z,0.00
2023-01-11T05:09:10.832Z,0.00
2023-01-11T05:10:10.791Z,0.00
2023-01-11T05:11:10.754Z,0.00
2023-01-11T05:12:10.792Z,0.00
2023-01-11T05:13:10.734Z,0.00
2023-01-11T05:14:10.694Z,0.00
2023-01-11T05:15:10.741Z,0.00
2023-01-11T05:16:10.733Z,0.00
2023-01-11T05:17:10.703Z,0.00
2023-01-11T05:18:10.703Z,0.00
2023-01-11T05:19:10.638Z,0.00
2023-01-11T05:20:10.631Z,0.00
2023-01-11T05:21:10.615Z,0.00
2023-01-11T05:22:10.594Z,0.00
2023-01-11T05:23:10.613Z,0.00
2023-01-11T05:24:10.713Z,0.00
2023-01-11T05:25:10.562Z,0.00
2023-01-11T05:26:10.549Z,0.00
2023-01-11T05:27:11.280Z,0.00
2023-01-11T05:28:10.509Z,0.00
2023-01-11T05:29:10.546Z,0.00
2023-01-11T05:30:10.615Z,0.00
2023-01-11T05:31:10.499Z,0.00
2023-01-11T05:32:11.355Z,0.00
2023-01-11T05:33:10.472Z,0.00
2023-01-11T05:34:10.732Z,0.00
2023-01-11T05:35:10.473Z,0.00
2023-01-11T05:36:10.453Z,0.00
2023-01-11T05:37:10.438Z,0.00
2023-01-11T05:38:10.389Z,0.00
2023-01-11T05:39:10.691Z,0.00
2023-01-11T05:40:10.341Z,0.00
2023-01-11T05:41:10.399Z,0.00
2023-01-11T05:42:10.483Z,0.00
2023-01-11T05:43:10.331Z,0.00
2023-01-11T05:44:10.303Z,0.00
2023-01-11T05:45:10.296Z,0.00
2023-01-11T05:46:10.308Z,0.00
2023-01-11T05:47:10.304Z,0.00
2023-01-11T05:48:10.410Z,0.00
2023-01-11T05:49:10.313Z,0.00
2023-01-11T05:50:10.247Z,0.00
2023-01-11T05:51:10.267Z,0.00
2023-01-11T05:52:10.213Z,0.00
2023-01-11T05:53:10.216Z,0.00
2023-01-11T05:54:10.310Z,0.00
2023-01-11T05:55:10.233Z,0.00
2023-01-11T05:56:10.198Z,0.00
2023-01-11T05:57:10.166Z,0.00
2023-01-11T05:58:10.133Z,0.00
2023-01-11T05:59:10.132Z,0.00
2023-01-11T06:00:10.189Z,0.00
2023-01-11T06:01:10.148Z,0.00
2023-01-11T06:02:10.164Z,0.00
2023-01-11T06:03:10.131Z,0.00
2023-01-11T06:04:10.068Z,0.00
2023-01-11T06:05:10.900Z,0.00
2023-01-11T06:06:10.111Z,0.00
2023-01-11T06:07:10.062Z,0.00
2023-01-11T06:08:09.957Z,0.00
2023-01-11T06:09:10.009Z,0.00
2023-01-11T06:10:09.959Z,0.00
2023-01-11T06:11:09.952Z,0.00
2023-01-11T06:12:10.320Z,0.00
2023-01-11T06:13:09.932Z,0.00
2023-01-11T06:14:09.899Z,0.00
2023-01-11T06:15:09.940Z,0.00
2023-01-11T06:16:09.961Z,0.00
2023-01-11T06:17:09.901Z,0.00
2023-01-11T06:18:10.020Z,0.00
2023-01-11T06:19:09.839Z,0.00
2023-01-11T06:20:09.820Z,0.00
2023-01-11T06:21:09.824Z,0.00
2023-01-11T06:22:09.814Z,0.00
2023-01-11T06:23:09.831Z,0.00
2023-01-11T06:24:09.873Z,0.00
2023-01-11T06:25:09.796Z,0.00
2023-01-11T06:26:09.742Z,0.00
2023-01-11T06:27:09.737Z,0.00
2023-01-11T06:28:09.691Z,0.00
2023-01-11T06:29:09.736Z,0.00
2023-01-11T06:30:09.808Z,0.00
2023-01-11T06:31:09.740Z,0.00
2023-01-11T06:32:09.680Z,0.00
2023-01-11T06:33:09.658Z,0.00
2023-01-11T06:34:09.609Z,0.00
2023-01-11T06:35:09.655Z,0.00
2023-01-11T06:36:09.706Z,0.00
2023-01-11T06:37:09.608Z,0.00
2023-01-11T06:38:09.576Z,0.00
2023-01-11T06:39:09.571Z,0.00
2023-01-11T06:40:09.547Z,0.00
2023-01-11T06:41:09.573Z,0.00
2023-01-11T06:42:09.593Z,0.00
2023-01-11T06:43:09.540Z,0.00
2023-01-11T06:44:09.505Z,0.00
2023-01-11T06:45:09.535Z,0.00
2023-01-11T06:46:09.466Z,0.00
2023-01-11T06:47:09.505Z,0.00
2023-01-11T06:48:09.445Z,0.00
2023-01-11T06:49:09.453Z,0.00
2023-01-11T06:50:09.420Z,0.00
2023-01-11T06:51:09.417Z,0.00
2023-01-11T06:52:09.407Z,0.00
2023-01-11T06:53:09.373Z,0.00
2023-01-11T06:54:09.437Z,0.00
2023-01-11T06:55:09.381Z,0.00
2023-01-11T06:56:09.304Z,0.00
2023-01-11T06:57:09.353Z,0.00
2023-01-11T06:58:09.313Z,0.00
2023-01-11T06:59:09.299Z,0.00
2023-01-11T07:00:09.288Z,0.00
2023-01-11T07:01:09.428Z,0.00
2023-01-11T07:02:09.244Z,0.00
2023-01-11T07:03:09.224Z,0.00
2023-01-11T07:04:09.233Z,0.00
2023-01-11T07:05:09.254Z,0.00
2023-01-11T07:06:09.289Z,0.00
2023-01-11T07:07:09.251Z,0.00
2023-01-11T07:08:09.149Z,0.00
2023-01-11T07:09:09.228Z,0.00
2023-01-11T07:10:09.134Z,0.00
2023-01-11T07:11:09.168Z,0.00
2023-01-11T07:12:09.153Z,0.00
2023-01-11T07:13:09.093Z,0.00
2023-01-11T07:14:09.053Z,0.00
2023-01-11T07:15:09.091Z,0.00
2023-01-11T07:16:09.088Z,0.00
2023-01-11T07:17:09.078Z,0.00
2023-01-11T07:18:09.039Z,0.00
2023-01-11T07:19:09.006Z,0.00
2023-01-11T07:20:09.001Z,0.00
2023-01-11T07:21:09.006Z,0.00
2023-01-11T07:22:08.957Z,0.00
2023-01-11T07:23:08.996Z,0.00
2023-01-11T07:24:08.941Z,0.00
2023-01-11T07:25:08.963Z,0.00
2023-01-11T07:26:08.986Z,0.00
2023-01-11T07:27:08.896Z,0.00
2023-01-11T07:28:08.917Z,0.00
2023-01-11T07:29:08.882Z,0.00
2023-01-11T07:30:09.907Z,0.00
2023-01-11T07:31:08.912Z,0.00
2023-01-11T07:32:08.835Z,0.00
2023-01-11T07:33:08.820Z,0.00
2023-01-11T07:34:08.790Z,0.00
2023-01-11T07:35:08.805Z,0.00
2023-01-11T07:36:08.870Z,0.00
2023-01-11T07:37:08.803Z,0.00
2023-01-11T07:38:09.756Z,0.00
2023-01-11T07:39:08.739Z,0.00
2023-01-11T07:40:08.708Z,0.00
2023-01-11T07:41:08.700Z,0.00
2023-01-11T07:42:08.719Z,0.00
2023-01-11T07:43:08.726Z,0.00
2023-01-11T07:44:08.652Z,0.00
2023-01-11T07:45:08.683Z,0.00
2023-01-11T07:46:08.754Z,0.00
2023-01-11T07:47:08.700Z,0.00
2023-01-11T07:48:08.692Z,0.00
2023-01-11T07:49:08.635Z,0.00
2023-01-11T07:50:08.609Z,0.00
2023-01-11T07:51:08.584Z,0.00
2023-01-11T07:52:08.555Z,0.00
2023-01-11T07:53:08.586Z,0.00
2023-01-11T07:54:08.532Z,0.00
2023-01-11T07:55:08.546Z,0.00
2023-01-11T07:56:08.482Z,0.00
2023-01-11T07:57:08.522Z,0.00
2023-01-11T07:58:08.503Z,5.62
2023-01-11T07:59:08.470Z,5.62
2023-01-11T08:00:08.574Z,0.00
2023-01-11T08:01:08.430Z,5.62
2023-01-11T08:02:08.402Z,5.62
2023-01-11T08:03:08.558Z,5.62
2023-01-11T08:04:08.395Z,5.62
2023-01-11T08:05:08.393Z,5.62
2023-01-11T08:06:08.361Z,0.00
2023-01-11T08:07:08.391Z,0.00
2023-01-11T08:08:08.330Z,0.00
2023-01-11T08:09:08.402Z,0.00
2023-01-11T08:10:08.324Z,0.00
2023-01-11T08:11:08.321Z,0.00
2023-01-11T08:12:08.325Z,5.62
2023-01-11T08:13:08.281Z,5.62
2023-01-11T08:14:08.229Z,5.62
2023-01-11T08:15:08.284Z,5.62
2023-01-11T08:16:08.258Z,5.62
2023-01-11T08:17:08.259Z,5.62
2023-01-11T08:18:08.301Z,5.62
2023-01-11T08:19:08.200Z,5.62
2023-01-11T08:20:08.178Z,5.62
2023-01-11T08:21:08.184Z,5.62
2023-01-11T08:22:08.122Z,5.62
2023-01-11T08:23:08.171Z,5.62
2023-01-11T08:24:08.219Z,5.62
2023-01-11T08:25:08.133Z,5.62
2023-01-11T08:26:08.093Z,5.62
2023-01-11T08:27:08.142Z,5.62
2023-01-11T08:28:08.077Z,11.25
2023-01-11T08:29:08.057Z,11.25
2023-01-11T08:30:08.060Z,11.25
2023-01-11T08:31:08.067Z,11.25
2023-01-11T08:32:07.974Z,11.25
2023-01-11T08:33:08.166Z,11.25
2023-01-11T08:34:07.966Z,11.25
2023-01-11T08:35:07.961Z,11.25
2023-01-11T08:36:08.021Z,11.25
2023-01-11T08:37:07.956Z,11.25
2023-01-11T08:38:07.916Z,11.25
2023-01-11T08:39:07.915Z,11.25
2023-01-11T08:40:07.887Z,5.62
2023-01-11T08:41:07.869Z,5.62
2023-01-11T08:42:07.932Z,5.62
2023-01-11T08:43:07.879Z,5.62
2023-01-11T08:44:07.802Z,5.62
2023-01-11T08:45:07.853Z,5.62
2023-01-11T08:46:07.826Z,5.62
2023-01-11T08:47:07.792Z,5.62
2023-01-11T08:48:07.880Z,0.00
2023-01-11T08:49:07.763Z,5.62
2023-01-11T08:50:07.723Z,5.62
2023-01-11T08:51:07.805Z,5.62
2023-01-11T08:52:07.721Z,5.62
2023-01-11T08:53:07.707Z,5.62
2023-01-11T08:54:07.695Z,5.62
2023-01-11T08:55:07.703Z,16.88
2023-01-11T08:56:07.640Z,16.88
2023-01-11T08:57:07.694Z,11.25
2023-01-11T08:58:07.635Z,11.25
2023-01-11T08:59:07.630Z,16.88
2023-01-11T09:00:07.721Z,16.88
2023-01-11T09:01:07.598Z,16.88
2023-01-11T09:02:07.548Z,16.88
2023-01-11T09:03:07.667Z,16.88
2023-01-11T09:04:19.377Z,16.88
2023-01-11T09:05:08.601Z,16.88
2023-01-11T09:06:07.553Z,16.88
2023-01-11T09:07:07.512Z,22.50
2023-01-11T09:08:07.468Z,22.50
2023-01-11T09:09:07.546Z,22.50
2023-01-11T09:10:07.470Z,16.88
2023-01-11T09:11:07.573Z,16.88
2023-01-11T09:12:07.452Z,22.50
2023-01-11T09:13:07.447Z,16.88
2023-01-11T09:14:07.394Z,16.88
2023-01-11T09:15:07.439Z,16.88
2023-01-11T09:16:07.426Z,16.88
2023-01-11T09:17:07.448Z,22.50
2023-01-11T09:18:08.209Z,22.50
2023-01-11T09:19:07.353Z,22.50
2023-01-11T09:20:07.346Z,22.50
2023-01-11T09:21:07.322Z,22.50
2023-01-11T09:22:07.283Z,22.50
2023-01-11T09:23:07.359Z,22.50
2023-01-11T09:24:07.284Z,22.50
2023-01-11T09:25:11.401Z,22.50
2023-01-11T09:26:07.281Z,22.50
2023-01-11T09:27:07.249Z,22.50
2023-01-11T09:28:07.252Z,22.50
2023-01-11T09:29:07.269Z,22.50
2023-01-11T09:30:07.209Z,22.50
2023-01-11T09:31:07.237Z,16.88
2023-01-11T09:32:07.171Z,16.88
2023-01-11T09:33:07.156Z,16.88
2023-01-11T09:34:07.223Z,16.88
2023-01-11T09:35:07.217Z,16.88
2023-01-11T09:36:07.146Z,16.88
2023-01-11T09:37:07.302Z,16.88
2023-01-11T09:38:07.090Z,16.88
2023-01-11T09:39:07.074Z,22.50
2023-01-11T09:40:07.086Z,22.50
2023-01-11T09:41:07.037Z,28.12
2023-01-11T09:42:07.028Z,28.12
2023-01-11T09:43:07.089Z,28.12
2023-01-11T09:44:07.017Z,28.12
2023-01-11T09:45:06.997Z,28.12
2023-01-11T09:46:08.690Z,22.50
2023-01-11T09:47:07.052Z,22.50
2023-01-11T09:48:06.987Z,22.50
2023-01-11T09:49:06.906Z,22.50
2023-01-11T09:50:06.924Z,22.50
2023-01-11T09:51:06.931Z,22.50
2023-01-11T09:52:06.893Z,22.50
2023-01-11T09:53:06.910Z,22.50
2023-01-11T09:54:06.897Z,22.50
2023-01-11T09:55:06.824Z,22.50
2023-01-11T09:56:06.843Z,22.50
2023-01-11T09:57:06.843Z,22.50
2023-01-11T09:58:06.848Z,22.50
2023-01-11T09:59:06.906Z,22.50
2023-01-11T10:00:06.810Z,22.50
2023-01-11T10:01:06.828Z,22.50
2023-01-11T10:02:06.773Z,22.50
2023-01-11T10:03:06.744Z,22.50
2023-01-11T10:04:06.909Z,22.50
2023-01-11T10:05:06.887Z,22.50
2023-01-11T10:06:06.839Z,28.12
2023-01-11T10:07:06.757Z,28.12
2023-01-11T10:18:22.582Z,50.62
2023-01-11T10:18:22.775Z,45.00
2023-01-11T10:18:29.328Z,39.38
2023-01-11T10:18:38.492Z,56.25
2023-01-11T10:18:38.492Z,56.25
2023-01-11T10:20:07.600Z,56.25
2023-01-11T10:21:06.493Z,61.88
2023-01-11T10:22:06.616Z,73.12
2023-01-11T10:23:06.478Z,73.12
2023-01-11T10:24:06.485Z,67.50
2023-01-11T10:25:06.474Z,67.50
2023-01-11T10:26:06.463Z,67.50
2023-01-11T10:27:06.440Z,61.88
2023-01-11T10:28:06.553Z,56.25
2023-01-11T10:29:06.434Z,50.62
2023-01-11T10:30:06.411Z,45.00
2023-01-11T10:31:06.408Z,45.00
2023-01-11T10:32:06.382Z,33.75
2023-01-11T10:33:06.345Z,22.50
2023-01-11T10:34:06.402Z,22.50
2023-01-11T10:35:06.307Z,22.50
2023-01-11T10:36:06.331Z,22.50
2023-01-11T10:37:06.293Z,28.12
2023-01-11T10:38:06.287Z,45.00
2023-01-11T10:39:06.325Z,56.25
2023-01-11T10:40:06.306Z,56.25
2023-01-11T10:41:06.248Z,50.62
2023-01-11T10:42:06.267Z,50.62
2023-01-11T10:43:06.186Z,39.38
2023-01-11T10:44:06.198Z,28.12
2023-01-11T10:45:06.238Z,22.50
2023-01-11T10:47:06.122Z,16.88
2023-01-11T10:48:06.161Z,16.88
2023-01-11T10:49:06.406Z,16.88
2023-01-11T10:50:06.617Z,11.25
2023-01-11T10:51:06.107Z,11.25
2023-01-11T10:52:06.195Z,16.88
2023-01-11T10:53:06.063Z,22.50
2023-01-11T10:55:06.010Z,28.12
2023-01-11T10:56:06.061Z,45.00
2023-01-11T10:57:07.213Z,67.50
2023-01-11T10:58:06.023Z,67.50
2023-01-11T10:59:05.992Z,73.12
2023-01-11T11:00:06.009Z,67.50
2023-01-11T11:01:05.966Z,61.88
2023-01-11T11:02:06.006Z,56.25
2023-01-11T11:03:05.922Z,45.00
2023-01-11T11:04:06.026Z,45.00
2023-01-11T11:05:05.903Z,39.38
2023-01-11T11:06:05.915Z,39.38
2023-01-11T11:07:05.845Z,56.25
2023-01-11T11:08:05.895Z,56.25
2023-01-11T11:09:05.816Z,50.62
2023-01-11T11:10:05.914Z,45.00
2023-01-11T11:11:05.834Z,50.62
2023-01-11T11:12:05.807Z,50.62
2023-01-11T11:13:05.793Z,50.62
2023-01-11T11:14:05.806Z,45.00
2023-01-11T11:15:05.740Z,56.25
2023-01-11T11:16:05.870Z,73.12
2023-01-11T11:17:05.749Z,78.75
2023-01-11T11:18:05.755Z,90.00
2023-01-11T11:19:05.679Z,90.00
2023-01-11T11:20:05.726Z,90.00
2023-01-11T11:21:05.653Z,95.62
2023-01-11T11:22:05.787Z,95.62
2023-01-11T11:23:05.656Z,95.62
2023-01-11T11:24:05.643Z,95.62
2023-01-11T11:25:05.635Z,95.62
2023-01-11T11:26:05.639Z,95.62
2023-01-11T11:27:05.678Z,90.00
2023-01-11T11:28:05.646Z,90.00
2023-01-11T11:29:05.550Z,90.00
2023-01-11T11:30:05.597Z,84.38
2023-01-11T11:31:05.541Z,78.75
2023-01-11T11:32:05.535Z,67.50
2023-01-11T11:33:05.524Z,67.50
2023-01-11T11:34:05.625Z,67.50
2023-01-11T11:35:05.468Z,56.25
2023-01-11T11:36:05.512Z,45.00
2023-01-11T11:37:05.440Z,45.00
2023-01-11T11:38:05.506Z,50.62
2023-01-11T11:39:05.430Z,56.25
2023-01-11T11:40:05.468Z,56.25
2023-01-11T11:41:05.428Z,50.62
2023-01-11T11:42:05.429Z,45.00
2023-01-11T11:43:05.359Z,39.38
2023-01-11T11:44:05.393Z,45.00
2023-01-11T11:45:05.357Z,56.25
2023-01-11T11:46:05.528Z,50.62
2023-01-11T11:47:05.322Z,50.62
2023-01-11T11:48:05.348Z,45.00
2023-01-11T11:49:05.295Z,50.62
2023-01-11T11:50:05.321Z,45.00
2023-01-11T11:51:05.275Z,45.00
2023-01-11T11:52:05.299Z,39.38
2023-01-11T11:53:05.250Z,45.00
2023-01-11T11:54:05.255Z,50.62
2023-01-11T11:55:05.191Z,45.00
2023-01-11T11:56:05.235Z,45.00
2023-01-11T11:57:05.161Z,50.62
2023-01-11T11:58:05.214Z,56.25
2023-01-11T11:59:05.175Z,61.88
2023-01-11T12:00:05.150Z,67.50
2023-01-11T12:01:05.141Z,73.12
2023-01-11T12:02:05.204Z,84.38
2023-01-11T12:03:05.084Z,90.00
2023-01-11T12:04:05.270Z,90.00
2023-01-11T12:05:05.137Z,84.38
2023-01-11T12:06:05.153Z,90.00
2023-01-11T12:07:05.050Z,90.00
2023-01-11T12:08:05.091Z,84.38
2023-01-11T12:09:04.996Z,73.12
2023-01-11T12:10:05.194Z,73.12
2023-01-11T12:11:05.012Z,90.00
2023-01-11T12:12:05.037Z,112.50
2023-01-11T12:13:04.974Z,146.25
2023-01-11T12:14:04.991Z,146.25
2023-01-11T12:15:04.925Z,157.50
2023-01-11T12:16:05.092Z,180.00
2023-01-11T12:17:04.920Z,191.25
2023-01-11T12:18:04.930Z,202.50
2023-01-11T12:19:04.910Z,180.00
2023-01-11T12:20:04.917Z,168.75
2023-01-11T12:21:04.861Z,157.50
2023-01-11T12:22:04.923Z,180.00
2023-01-11T12:23:04.862Z,191.25
2023-01-11T12:24:04.836Z,208.12
2023-01-11T12:25:04.809Z,230.62
2023-01-11T12:26:04.851Z,258.75
2023-01-11T12:27:04.838Z,236.25
2023-01-11T12:28:04.885Z,168.75
2023-01-11T12:29:04.734Z,163.12
2023-01-11T12:30:04.803Z,157.50
2023-01-11T12:31:04.822Z,163.12
2023-01-11T12:32:04.724Z,180.00
2023-01-11T12:33:04.719Z,163.12
2023-01-11T12:34:04.753Z,157.50
2023-01-11T12:35:04.655Z,157.50
2023-01-11T12:36:04.727Z,157.50
2023-01-11T12:37:04.636Z,151.88
2023-01-11T12:38:04.668Z,157.50
2023-01-11T12:39:04.646Z,151.88
2023-01-11T12:40:04.674Z,157.50
2023-01-11T12:41:04.597Z,140.62
2023-01-11T12:42:04.636Z,146.25
2023-01-11T12:43:04.548Z,146.25
2023-01-11T12:44:04.603Z,157.50
2023-01-11T12:45:04.525Z,157.50
2023-01-11T12:46:04.584Z,157.50
2023-01-11T12:47:04.530Z,157.50
2023-01-11T12:48:04.502Z,196.88
2023-01-11T12:49:04.486Z,168.75
2023-01-11T12:50:04.520Z,174.38
2023-01-11T12:51:04.448Z,174.38
2023-01-11T12:52:04.471Z,191.25
2023-01-11T12:53:04.448Z,174.38
2023-01-11T12:54:04.448Z,163.12
2023-01-11T12:55:04.388Z,174.38
2023-01-11T12:56:04.416Z,157.50
2023-01-11T12:57:04.363Z,168.75
2023-01-11T12:58:04.397Z,146.25
2023-01-11T12:59:04.370Z,118.12
2023-01-11T13:00:04.355Z,101.25
2023-01-11T13:01:04.353Z,118.12
2023-01-11T13:02:04.430Z,140.62
2023-01-11T13:03:04.271Z,123.75
2023-01-11T13:04:04.435Z,118.12
2023-01-11T13:05:04.254Z,101.25
2023-01-11T13:06:04.305Z,95.62
2023-01-11T13:07:04.964Z,106.88
2023-01-11T13:08:04.285Z,106.88
2023-01-11T13:09:04.188Z,118.12
2023-01-11T13:10:04.251Z,129.38
2023-01-11T13:11:04.192Z,140.62
2023-01-11T13:12:04.184Z,157.50
2023-01-11T13:13:04.163Z,151.88
2023-01-11T13:14:04.173Z,146.25
2023-01-11T13:15:04.104Z,135.00
2023-01-11T13:16:04.174Z,135.00
2023-01-11T13:17:04.093Z,151.88